Station Historical Data
Daily Summary for April 1, 2017 Units:  English    Metric   Both
« Previous Day
Next Day »
Daily Weekly Monthly Yearly Custom
  High: Low: Average:
Temperature: 44.8 °F 34.9 °F 37.5 °F
Dew Point: 37.7 °F 32.0 °F 34.1 °F
Humidity: 94% 70% 88%
Wind Speed: 9.0mph 0.0mph 3.8mph
Wind Gust: 14.0mph - -
Wind- - SW
Pressure: 30.17 in 29.74 in -
Precipitation: 0.02 in    
Historical Graphs
 
 
Tabular Data for April 1, 2017
Time Temperature Dew Point Pressure Wind Wind Speed Wind Gust Humidity Rainfall Rate (Hourly)
00:00 39.6 °F 37.7 °F 29.74 in NNE 4.0 mph 7.0 mph 93% 0.02 in
00:05 39.4 °F 37.5 °F 29.74 in NNE 4.0 mph 6.0 mph 93% 0.01 in
00:10 39.3 °F 37.4 °F 29.74 in NNE 4.0 mph 6.0 mph 93% 0.01 in
00:15 39.3 °F 37.7 °F 29.74 in NNE 4.0 mph 7.0 mph 94% 0.01 in
00:20 39.3 °F 37.7 °F 29.74 in NE 5.0 mph 6.0 mph 94% 0.01 in
00:25 39.3 °F 37.4 °F 29.75 in NE 3.0 mph 5.0 mph 93% 0.01 in
00:30 39.1 °F 37.2 °F 29.75 in NNE 4.0 mph 7.0 mph 93% 0.01 in
00:35 39.1 °F 37.2 °F 29.75 in NNE 3.0 mph 8.0 mph 93% 0.01 in
00:40 39.0 °F 37.1 °F 29.75 in NNE 4.0 mph 6.0 mph 93% 0.01 in
00:45 38.9 °F 37.0 °F 29.76 in North 4.0 mph 7.0 mph 93% 0.01 in
00:50 38.8 °F 37.2 °F 29.76 in North 4.0 mph 7.0 mph 94% 0.01 in
00:55 38.7 °F 37.1 °F 29.76 in NNE 4.0 mph 9.0 mph 94% 0.01 in
01:00 38.7 °F 37.1 °F 29.76 in North 4.0 mph 9.0 mph 94% 0.01 in
01:05 38.6 °F 36.8 °F 29.76 in NNE 4.0 mph 8.0 mph 93% 0.01 in
01:10 38.3 °F 36.5 °F 29.77 in NNE 5.0 mph 9.0 mph 93% 0.01 in
01:15 38.2 °F 36.4 °F 29.77 in NNE 6.0 mph 9.0 mph 93% 0.01 in
01:20 38.0 °F 36.2 °F 29.77 in NNE 5.0 mph 9.0 mph 93% 0.01 in
01:25 38.0 °F 36.4 °F 29.77 in NNE 4.0 mph 8.0 mph 94% 0.01 in
01:30 37.9 °F 36.1 °F 29.77 in NNE 4.0 mph 8.0 mph 93% 0.00 in
01:35 37.8 °F 36.0 °F 29.77 in NNE 4.0 mph 8.0 mph 93% 0.00 in
01:40 37.7 °F 35.9 °F 29.78 in North 7.0 mph 7.0 mph 93% 0.00 in
01:45 37.5 °F 35.7 °F 29.78 in NNE 5.0 mph 8.0 mph 93% 0.00 in
01:50 37.5 °F 35.9 °F 29.78 in NNE 2.0 mph 8.0 mph 94% 0.00 in
01:55 37.5 °F 35.7 °F 29.78 in NNE 4.0 mph 8.0 mph 93% 0.00 in
02:00 37.5 °F 35.7 °F 29.78 in North 6.0 mph 10.0 mph 93% 0.00 in
02:05 37.3 °F 35.5 °F 29.78 in North 6.0 mph 8.0 mph 93% 0.00 in
02:10 37.3 °F 35.5 °F 29.78 in North 3.0 mph 9.0 mph 93% 0.00 in
02:15 37.3 °F 35.5 °F 29.79 in NNE 6.0 mph 8.0 mph 93% 0.00 in
02:20 37.3 °F 35.5 °F 29.79 in NNE 5.0 mph 7.0 mph 93% 0.00 in
02:25 37.3 °F 35.5 °F 29.79 in NNE 4.0 mph 7.0 mph 93% 0.00 in
02:30 37.3 °F 35.5 °F 29.80 in NNE 3.0 mph 6.0 mph 93% 0.00 in
02:35 37.2 °F 35.4 °F 29.80 in NNE 4.0 mph 9.0 mph 93% 0.00 in
02:40 37.2 °F 35.4 °F 29.80 in NNE 4.0 mph 9.0 mph 93% 0.00 in
02:45 37.2 °F 35.4 °F 29.81 in North 4.0 mph 8.0 mph 93% 0.00 in
02:50 37.1 °F 35.3 °F 29.81 in North 3.0 mph 9.0 mph 93% 0.00 in
02:55 37.1 °F 35.5 °F 29.81 in NNE 5.0 mph 8.0 mph 94% 0.00 in
03:00 37.1 °F 35.5 °F 29.81 in NNW 3.0 mph 5.0 mph 94% 0.00 in
03:05 37.0 °F 35.4 °F 29.82 in NNW 7.0 mph 12.0 mph 94% 0.00 in
03:10 36.8 °F 35.0 °F 29.82 in North 3.0 mph 9.0 mph 93% 0.00 in
03:15 36.7 °F 34.9 °F 29.82 in NNE 4.0 mph 9.0 mph 93% 0.00 in
03:20 36.5 °F 34.7 °F 29.82 in North 3.0 mph 10.0 mph 93% 0.00 in
03:25 36.4 °F 34.6 °F 29.83 in NNW 5.0 mph 10.0 mph 93% 0.00 in
03:30 36.4 °F 34.6 °F 29.83 in North 4.0 mph 10.0 mph 93% 0.00 in
03:35 36.4 °F 34.8 °F 29.83 in North 4.0 mph 8.0 mph 94% 0.00 in
03:40 36.3 °F 34.7 °F 29.83 in North 4.0 mph 8.0 mph 94% 0.00 in
03:45 36.3 °F 34.7 °F 29.83 in North 4.0 mph 10.0 mph 94% 0.00 in
03:50 36.2 °F 34.6 °F 29.84 in North 5.0 mph 10.0 mph 94% 0.00 in
03:55 36.2 °F 34.4 °F 29.84 in North 5.0 mph 11.0 mph 93% 0.00 in
04:00 36.1 °F 34.3 °F 29.84 in NNW 4.0 mph 7.0 mph 93% 0.00 in
04:05 36.1 °F 34.3 °F 29.85 in North 4.0 mph 10.0 mph 93% 0.00 in
04:10 36.0 °F 34.2 °F 29.85 in NE 4.0 mph 10.0 mph 93% 0.00 in
04:15 35.9 °F 34.1 °F 29.85 in North 5.0 mph 9.0 mph 93% 0.00 in
04:20 35.7 °F 34.1 °F 29.86 in NNE 7.0 mph 8.0 mph 94% 0.00 in
04:25 35.6 °F 33.8 °F 29.86 in North 6.0 mph 11.0 mph 93% 0.00 in
04:30 35.7 °F 34.1 °F 29.86 in North 3.0 mph 6.0 mph 94% 0.00 in
04:35 35.7 °F 34.1 °F 29.86 in North 4.0 mph 10.0 mph 94% 0.00 in
04:40 35.6 °F 34.0 °F 29.87 in North 4.0 mph 10.0 mph 94% 0.00 in
04:45 35.6 °F 34.0 °F 29.87 in North 4.0 mph 8.0 mph 94% 0.00 in
04:50 35.6 °F 34.0 °F 29.87 in North 3.0 mph 7.0 mph 94% 0.00 in
04:55 35.6 °F 34.0 °F 29.88 in North 4.0 mph 9.0 mph 94% 0.00 in
05:00 35.5 °F 33.9 °F 29.88 in North 6.0 mph 9.0 mph 94% 0.00 in
05:05 35.4 °F 33.8 °F 29.88 in North 5.0 mph 9.0 mph 94% 0.00 in
05:10 35.4 °F 33.8 °F 29.89 in North 5.0 mph 9.0 mph 94% 0.00 in
05:15 35.4 °F 33.8 °F 29.89 in NNE 2.0 mph 7.0 mph 94% 0.00 in
05:20 35.4 °F 33.8 °F 29.89 in NE 4.0 mph 5.0 mph 94% 0.00 in
05:25 35.4 °F 33.8 °F 29.90 in North 5.0 mph 9.0 mph 94% 0.00 in
05:30 35.4 °F 33.8 °F 29.90 in WNW 5.0 mph 9.0 mph 94% 0.00 in
05:35 35.3 °F 33.7 °F 29.90 in North 5.0 mph 7.0 mph 94% 0.00 in
05:40 35.3 °F 33.7 °F 29.91 in North 4.0 mph 11.0 mph 94% 0.00 in
05:45 35.2 °F 33.6 °F 29.91 in North 4.0 mph 11.0 mph 94% 0.00 in
05:50 35.2 °F 33.6 °F 29.91 in NNE 4.0 mph 9.0 mph 94% 0.00 in
05:55 35.2 °F 33.6 °F 29.91 in NNE 4.0 mph 9.0 mph 94% 0.00 in
06:00 35.1 °F 33.5 °F 29.92 in North 4.0 mph 9.0 mph 94% 0.00 in
06:05 35.2 °F 33.6 °F 29.92 in North 2.0 mph 7.0 mph 94% 0.00 in
06:10 35.2 °F 33.6 °F 29.92 in NNW 3.0 mph 7.0 mph 94% 0.00 in
06:15 35.2 °F 33.6 °F 29.93 in North 3.0 mph 8.0 mph 94% 0.00 in
06:20 35.2 °F 33.6 °F 29.93 in North 3.0 mph 8.0 mph 94% 0.00 in
06:25 35.3 °F 33.7 °F 29.93 in NNW 2.0 mph 5.0 mph 94% 0.00 in
06:30 35.2 °F 33.6 °F 29.94 in NNW 3.0 mph 8.0 mph 94% 0.00 in
06:35 35.2 °F 33.6 °F 29.94 in NNW 3.0 mph 6.0 mph 94% 0.00 in
06:40 35.2 °F 33.6 °F 29.94 in North 4.0 mph 6.0 mph 94% 0.00 in
06:45 35.2 °F 33.6 °F 29.94 in NNW 2.0 mph 5.0 mph 94% 0.00 in
06:50 35.2 °F 33.6 °F 29.94 in NNW 2.0 mph 5.0 mph 94% 0.00 in
06:55 35.2 °F 33.6 °F 29.94 in NNW 2.0 mph 5.0 mph 94% 0.00 in
07:00 35.2 °F 33.6 °F 29.95 in North 5.0 mph 8.0 mph 94% 0.00 in
07:05 35.2 °F 33.6 °F 29.95 in North 4.0 mph 7.0 mph 94% 0.00 in
07:10 35.1 °F 33.5 °F 29.95 in NNW 4.0 mph 5.0 mph 94% 0.00 in
07:15 35.1 °F 33.5 °F 29.96 in NNW 4.0 mph 6.0 mph 94% 0.00 in
07:20 35.1 °F 33.5 °F 29.96 in NNW 3.0 mph 6.0 mph 94% 0.00 in
07:25 35.1 °F 33.5 °F 29.96 in NNW 4.0 mph 7.0 mph 94% 0.00 in
07:30 35.1 °F 33.5 °F 29.96 in NNW 4.0 mph 7.0 mph 94% 0.00 in
07:35 35.1 °F 33.3 °F 29.97 in NNW 4.0 mph 8.0 mph 93% 0.00 in
07:40 35.1 °F 33.3 °F 29.97 in NNW 3.0 mph 6.0 mph 93% 0.00 in
07:45 35.1 °F 33.5 °F 29.97 in North 5.0 mph 7.0 mph 94% 0.00 in
07:50 35.1 °F 33.3 °F 29.97 in North 4.0 mph 7.0 mph 93% 0.00 in
07:55 35.2 °F 33.6 °F 29.98 in North 3.0 mph 7.0 mph 94% 0.00 in
08:00 35.3 °F 33.5 °F 29.98 in North 3.0 mph 6.0 mph 93% 0.00 in
08:05 35.3 °F 33.5 °F 29.98 in NNW 2.0 mph 6.0 mph 93% 0.00 in
08:10 35.4 °F 33.6 °F 29.98 in NNW 3.0 mph 7.0 mph 93% 0.01 in
08:15 35.3 °F 33.5 °F 29.98 in NW 3.0 mph 6.0 mph 93% 0.01 in
08:20 35.4 °F 33.6 °F 29.99 in NNW 3.0 mph 5.0 mph 93% 0.01 in
08:25 35.5 °F 33.7 °F 29.99 in North 3.0 mph 6.0 mph 93% 0.01 in
08:30 35.4 °F 33.6 °F 29.99 in North 3.0 mph 6.0 mph 93% 0.01 in
08:35 35.5 °F 33.9 °F 29.99 in NNW 3.0 mph 8.0 mph 94% 0.01 in
08:40 35.6 °F 33.8 °F 29.99 in NNW 3.0 mph 8.0 mph 93% 0.01 in
08:45 35.6 °F 33.8 °F 29.99 in North 3.0 mph 6.0 mph 93% 0.01 in
08:50 35.6 °F 33.8 °F 30.00 in NNW 4.0 mph 5.0 mph 93% 0.01 in
08:55 35.6 °F 33.8 °F 30.00 in NW 3.0 mph 5.0 mph 93% 0.01 in
09:00 35.6 °F 33.8 °F 30.00 in NNW 2.0 mph 5.0 mph 93% 0.01 in
09:05 35.7 °F 33.9 °F 30.00 in NNW 3.0 mph 7.0 mph 93% 0.01 in
09:10 35.6 °F 33.8 °F 30.00 in NNW 3.0 mph 7.0 mph 93% 0.00 in
09:15 35.7 °F 33.9 °F 30.01 in North 1.0 mph 4.0 mph 93% 0.00 in
09:20 35.8 °F 34.0 °F 30.01 in North 3.0 mph 9.0 mph 93% 0.00 in
09:25 35.7 °F 33.9 °F 30.01 in NNW 4.0 mph 6.0 mph 93% 0.00 in
09:30 35.8 °F 34.0 °F 30.02 in NW 3.0 mph 6.0 mph 93% 0.00 in
09:35 35.9 °F 34.1 °F 30.02 in NNW 3.0 mph 6.0 mph 93% 0.00 in
09:40 35.7 °F 33.9 °F 30.02 in NNW 3.0 mph 6.0 mph 93% 0.00 in
09:45 35.7 °F 33.9 °F 30.03 in NNW 3.0 mph 9.0 mph 93% 0.00 in
09:50 35.9 °F 34.1 °F 30.03 in NNW 3.0 mph 9.0 mph 93% 0.00 in
09:55 35.9 °F 34.1 °F 30.03 in NNW 2.0 mph 7.0 mph 93% 0.00 in
10:00 35.9 °F 34.1 °F 30.03 in NNW 6.0 mph 8.0 mph 93% 0.00 in
10:05 35.7 °F 33.9 °F 30.03 in NW 4.0 mph 9.0 mph 93% 0.00 in
10:10 35.8 °F 34.0 °F 30.04 in NW 4.0 mph 9.0 mph 93% 0.00 in
10:15 35.8 °F 34.0 °F 30.04 in North 5.0 mph 5.0 mph 93% 0.00 in
10:20 35.8 °F 34.0 °F 30.04 in NNW 3.0 mph 6.0 mph 93% 0.00 in
10:25 35.9 °F 34.1 °F 30.05 in NW 3.0 mph 9.0 mph 93% 0.00 in
10:30 35.9 °F 34.1 °F 30.05 in NW 2.0 mph 8.0 mph 93% 0.00 in
10:35 36.0 °F 34.2 °F 30.05 in NW 1.0 mph 8.0 mph 93% 0.00 in
10:40 36.1 °F 34.3 °F 30.05 in WNW 3.0 mph 8.0 mph 93% 0.00 in
10:45 36.2 °F 34.1 °F 30.05 in WNW 2.0 mph 5.0 mph 92% 0.00 in
10:50 36.1 °F 34.0 °F 30.06 in NW 3.0 mph 7.0 mph 92% 0.00 in
10:55 36.0 °F 33.9 °F 30.06 in NW 3.0 mph 8.0 mph 92% 0.00 in
11:00 36.0 °F 33.9 °F 30.05 in NW 3.0 mph 6.0 mph 92% 0.00 in
11:05 36.1 °F 34.0 °F 30.06 in NNW 6.0 mph 6.0 mph 92% 0.00 in
11:10 35.9 °F 33.8 °F 30.05 in NW 3.0 mph 7.0 mph 92% 0.00 in
11:15 36.0 °F 33.9 °F 30.05 in NW 3.0 mph 7.0 mph 92% 0.00 in
11:20 36.1 °F 34.0 °F 30.05 in WNW 3.0 mph 7.0 mph 92% 0.00 in
11:25 36.0 °F 33.9 °F 30.05 in NW 4.0 mph 8.0 mph 92% 0.00 in
11:30 36.1 °F 34.0 °F 30.05 in NNW 4.0 mph 8.0 mph 92% 0.00 in
11:35 36.1 °F 34.0 °F 30.06 in WNW 5.0 mph 7.0 mph 92% 0.00 in
11:40 36.2 °F 33.8 °F 30.05 in NW 1.0 mph 8.0 mph 91% 0.00 in
11:45 36.5 °F 34.4 °F 30.05 in WNW 4.0 mph 9.0 mph 92% 0.00 in
11:50 36.7 °F 34.3 °F 30.05 in WNW 4.0 mph 9.0 mph 91% 0.00 in
12:00 36.8 °F 34.4 °F 30.05 in NW 4.0 mph 9.0 mph 91% 0.00 in
12:05 36.8 °F 34.1 °F 30.06 in WNW 2.0 mph 7.0 mph 90% 0.00 in
12:10 37.0 °F 34.3 °F 30.06 in NNW 2.0 mph 5.0 mph 90% 0.00 in
12:15 36.9 °F 34.2 °F 30.06 in NNW 3.0 mph 8.0 mph 90% 0.00 in
12:20 37.0 °F 34.3 °F 30.06 in NNW 3.0 mph 8.0 mph 90% 0.00 in
12:25 37.4 °F 34.5 °F 30.06 in NW 3.0 mph 7.0 mph 89% 0.00 in
12:30 37.4 °F 34.5 °F 30.06 in NW 4.0 mph 8.0 mph 89% 0.00 in
12:35 37.5 °F 34.6 °F 30.06 in West 3.0 mph 6.0 mph 89% 0.00 in
12:40 37.5 °F 34.3 °F 30.06 in NNW 3.0 mph 8.0 mph 88% 0.00 in
12:45 37.6 °F 34.4 °F 30.06 in NNW 1.0 mph 9.0 mph 88% 0.00 in
12:50 37.8 °F 34.6 °F 30.06 in North 5.0 mph 9.0 mph 88% 0.00 in
12:55 37.6 °F 34.4 °F 30.06 in NW 4.0 mph 10.0 mph 88% 0.00 in
13:00 37.6 °F 34.4 °F 30.05 in NW 4.0 mph 10.0 mph 88% 0.00 in
13:05 37.7 °F 34.5 °F 30.05 in NW 4.0 mph 8.0 mph 88% 0.00 in
13:10 38.3 °F 35.1 °F 30.05 in NW 3.0 mph 8.0 mph 88% 0.00 in
13:15 38.9 °F 35.4 °F 30.06 in WNW 3.0 mph 8.0 mph 87% 0.00 in
13:20 38.9 °F 35.1 °F 30.06 in West 4.0 mph 9.0 mph 86% 0.00 in
13:25 39.3 °F 35.5 °F 30.07 in WNW 4.0 mph 9.0 mph 86% 0.00 in
13:30 39.2 °F 35.1 °F 30.07 in WNW 4.0 mph 7.0 mph 85% 0.00 in
13:35 39.3 °F 34.9 °F 30.07 in NW 4.0 mph 8.0 mph 84% 0.00 in
13:40 39.5 °F 35.1 °F 30.07 in West 4.0 mph 8.0 mph 84% 0.00 in
13:45 39.3 °F 35.2 °F 30.07 in NW 3.0 mph 7.0 mph 85% 0.00 in
13:50 39.2 °F 35.1 °F 30.07 in WNW 9.0 mph 10.0 mph 85% 0.00 in
13:55 38.8 °F 34.4 °F 30.08 in WNW 2.0 mph 9.0 mph 84% 0.00 in
14:00 39.1 °F 34.7 °F 30.08 in WNW 5.0 mph 10.0 mph 84% 0.00 in
14:05 39.1 °F 34.7 °F 30.08 in WNW 5.0 mph 10.0 mph 84% 0.00 in
14:10 39.1 °F 34.4 °F 30.07 in NW 4.0 mph 9.0 mph 83% 0.00 in
14:15 39.3 °F 34.6 °F 30.07 in NW 4.0 mph 9.0 mph 83% 0.00 in
14:20 39.4 °F 34.7 °F 30.07 in WNW 5.0 mph 8.0 mph 83% 0.00 in
14:25 39.4 °F 34.4 °F 30.07 in NW 1.0 mph 8.0 mph 82% 0.00 in
14:30 39.3 °F 34.0 °F 30.07 in NW 4.0 mph 8.0 mph 81% 0.00 in
14:35 39.7 °F 34.7 °F 30.07 in NW 4.0 mph 8.0 mph 82% 0.00 in
14:40 39.8 °F 34.4 °F 30.08 in NW 4.0 mph 8.0 mph 81% 0.00 in
14:45 39.9 °F 34.9 °F 30.08 in North 2.0 mph 7.0 mph 82% 0.00 in
14:50 40.2 °F 35.1 °F 30.08 in WNW 4.0 mph 6.0 mph 82% 0.00 in
14:55 40.0 °F 34.3 °F 30.07 in WNW 3.0 mph 9.0 mph 80% 0.00 in
15:00 40.5 °F 34.8 °F 30.07 in NNW 3.0 mph 7.0 mph 80% 0.00 in
15:05 40.6 °F 34.3 °F 30.07 in NNW 4.0 mph 8.0 mph 78% 0.00 in
15:10 40.6 °F 34.3 °F 30.07 in NNW 4.0 mph 8.0 mph 78% 0.00 in
15:15 40.4 °F 34.1 °F 30.07 in NNW 4.0 mph 7.0 mph 78% 0.00 in
15:20 40.3 °F 34.0 °F 30.08 in NW 3.0 mph 8.0 mph 78% 0.00 in
15:25 40.3 °F 34.0 °F 30.08 in NNW 3.0 mph 10.0 mph 78% 0.00 in
15:30 40.4 °F 34.1 °F 30.08 in North 3.0 mph 7.0 mph 78% 0.00 in
15:35 40.6 °F 34.3 °F 30.08 in NNE 7.0 mph 7.0 mph 78% 0.00 in
15:40 40.9 °F 34.6 °F 30.08 in NNW 4.0 mph 7.0 mph 78% 0.00 in
15:45 40.9 °F 33.9 °F 30.08 in NW 4.0 mph 6.0 mph 76% 0.00 in
15:50 41.1 °F 34.1 °F 30.08 in NW 3.0 mph 7.0 mph 76% 0.00 in
15:55 41.5 °F 34.8 °F 30.08 in WNW 2.0 mph 5.0 mph 77% 0.00 in
16:00 41.4 °F 34.1 °F 30.08 in WNW 2.0 mph 7.0 mph 75% 0.00 in
16:05 41.8 °F 34.8 °F 30.08 in West 6.0 mph 7.0 mph 76% 0.00 in
16:10 41.9 °F 34.6 °F 30.08 in WNW 3.0 mph 7.0 mph 75% 0.00 in
16:15 41.6 °F 33.9 °F 30.08 in WNW 3.0 mph 8.0 mph 74% 0.00 in
16:20 41.7 °F 34.4 °F 30.09 in WNW 3.0 mph 8.0 mph 75% 0.00 in
16:25 41.8 °F 34.1 °F 30.09 in NW 3.0 mph 8.0 mph 74% 0.00 in
16:30 41.8 °F 34.1 °F 30.09 in WNW 4.0 mph 7.0 mph 74% 0.00 in
16:35 41.9 °F 34.2 °F 30.10 in NNW 7.0 mph 8.0 mph 74% 0.00 in
16:40 42.0 °F 34.3 °F 30.10 in WNW 2.0 mph 8.0 mph 74% 0.00 in
16:45 42.2 °F 34.2 °F 30.11 in WNW 4.0 mph 9.0 mph 73% 0.00 in
16:50 42.0 °F 34.3 °F 30.11 in West 4.0 mph 9.0 mph 74% 0.00 in
16:55 42.1 °F 34.4 °F 30.11 in West 4.0 mph 9.0 mph 74% 0.00 in
17:00 42.2 °F 34.2 °F 30.11 in WNW 4.0 mph 7.0 mph 73% 0.00 in
17:05 42.5 °F 34.8 °F 30.12 in West 5.0 mph 7.0 mph 74% 0.00 in
17:10 42.5 °F 34.8 °F 30.11 in West 3.0 mph 9.0 mph 74% 0.00 in
17:15 42.7 °F 34.6 °F 30.11 in West 4.0 mph 9.0 mph 73% 0.00 in
17:20 43.3 °F 35.6 °F 30.11 in West 3.0 mph 9.0 mph 74% 0.00 in
17:25 43.3 °F 34.9 °F 30.11 in West 4.0 mph 8.0 mph 72% 0.00 in
17:30 43.6 °F 35.5 °F 30.11 in West 5.0 mph 8.0 mph 73% 0.00 in
17:35 44.0 °F 35.2 °F 30.11 in Calm   7.0 mph 71% 0.00 in
17:40 44.4 °F 35.9 °F 30.11 in WNW 2.0 mph 6.0 mph 72% 0.00 in
17:45 44.8 °F 35.6 °F 30.11 in WNW 3.0 mph 6.0 mph 70% 0.00 in
17:50 43.9 °F 35.5 °F 30.11 in WSW 3.0 mph 8.0 mph 72% 0.00 in
17:55 42.6 °F 35.6 °F 30.11 in SW 4.0 mph 10.0 mph 76% 0.00 in
18:00 41.6 °F 34.6 °F 30.11 in SW 5.0 mph 10.0 mph 76% 0.00 in
18:05 41.1 °F 34.8 °F 30.11 in WSW 7.0 mph 12.0 mph 78% 0.00 in
18:10 40.9 °F 34.6 °F 30.11 in SW 7.0 mph 9.0 mph 78% 0.00 in
18:15 40.8 °F 34.5 °F 30.11 in SW 6.0 mph 9.0 mph 78% 0.00 in
18:20 40.5 °F 34.2 °F 30.11 in SW 5.0 mph 9.0 mph 78% 0.00 in
18:25 40.1 °F 33.8 °F 30.11 in SW 6.0 mph 11.0 mph 78% 0.00 in
18:30 40.1 °F 34.4 °F 30.11 in SW 5.0 mph 11.0 mph 80% 0.00 in
18:35 40.1 °F 34.1 °F 30.12 in SW 6.0 mph 10.0 mph 79% 0.00 in
18:40 39.8 °F 33.8 °F 30.11 in SSW 4.0 mph 9.0 mph 79% 0.00 in
18:45 39.6 °F 33.6 °F 30.11 in WSW 3.0 mph 11.0 mph 79% 0.00 in
18:50 39.5 °F 33.8 °F 30.11 in WSW 5.0 mph 11.0 mph 80% 0.00 in
18:55 39.7 °F 34.0 °F 30.12 in SW 5.0 mph 10.0 mph 80% 0.00 in
19:00 39.7 °F 33.7 °F 30.12 in WSW 5.0 mph 10.0 mph 79% 0.00 in
19:05 39.5 °F 33.5 °F 30.12 in WSW 5.0 mph 10.0 mph 79% 0.00 in
19:10 39.3 °F 33.3 °F 30.12 in WSW 6.0 mph 12.0 mph 79% 0.00 in
19:15 39.1 °F 33.1 °F 30.13 in SW 6.0 mph 12.0 mph 79% 0.00 in
19:20 38.9 °F 33.3 °F 30.13 in SW 2.0 mph 10.0 mph 80% 0.00 in
19:25 38.6 °F 33.3 °F 30.13 in WSW 7.0 mph 12.0 mph 81% 0.00 in
19:30 38.4 °F 33.1 °F 30.13 in SSW 4.0 mph 14.0 mph 81% 0.00 in
19:35 38.1 °F 33.1 °F 30.13 in SW 5.0 mph 9.0 mph 82% 0.00 in
19:40 37.9 °F 32.9 °F 30.13 in West 7.0 mph 9.0 mph 82% 0.00 in
19:45 37.7 °F 32.7 °F 30.13 in WSW 4.0 mph 11.0 mph 82% 0.00 in
19:50 37.5 °F 32.8 °F 30.13 in SW 6.0 mph 10.0 mph 83% 0.00 in
19:55 37.4 °F 32.7 °F 30.13 in West 3.0 mph 11.0 mph 83% 0.00 in
20:05 37.0 °F 32.6 °F 30.14 in WSW 5.0 mph 11.0 mph 84% 0.00 in
20:10 36.9 °F 32.5 °F 30.14 in WSW 5.0 mph 11.0 mph 84% 0.00 in
20:15 36.8 °F 32.7 °F 30.14 in WSW 5.0 mph 10.0 mph 85% 0.00 in
20:20 36.7 °F 32.6 °F 30.14 in WSW 5.0 mph 9.0 mph 85% 0.00 in
20:25 36.7 °F 32.6 °F 30.15 in WSW 6.0 mph 13.0 mph 85% 0.00 in
20:30 36.7 °F 32.6 °F 30.15 in WSW 6.0 mph 13.0 mph 85% 0.00 in
20:35 36.6 °F 32.5 °F 30.15 in West 4.0 mph 11.0 mph 85% 0.00 in
20:40 36.5 °F 32.4 °F 30.15 in West 6.0 mph 11.0 mph 85% 0.00 in
20:45 36.6 °F 32.8 °F 30.15 in West 8.0 mph 11.0 mph 86% 0.00 in
20:50 36.5 °F 32.4 °F 30.15 in SSW 5.0 mph 11.0 mph 85% 0.00 in
20:55 36.4 °F 32.3 °F 30.15 in SW 3.0 mph 7.0 mph 85% 0.00 in
21:00 36.3 °F 32.5 °F 30.15 in WSW 4.0 mph 8.0 mph 86% 0.00 in
21:05 36.2 °F 32.4 °F 30.15 in WSW 4.0 mph 8.0 mph 86% 0.00 in
21:10 36.2 °F 32.4 °F 30.16 in WSW 4.0 mph 9.0 mph 86% 0.00 in
21:15 36.3 °F 32.5 °F 30.16 in WSW 5.0 mph 9.0 mph 86% 0.00 in
21:20 36.2 °F 32.4 °F 30.16 in WSW 5.0 mph 9.0 mph 86% 0.00 in
21:25 36.2 °F 32.4 °F 30.16 in WSW 5.0 mph 12.0 mph 86% 0.00 in
21:30 36.2 °F 32.4 °F 30.16 in WSW 3.0 mph 10.0 mph 86% 0.00 in
21:35 36.1 °F 32.3 °F 30.16 in SW 6.0 mph 8.0 mph 86% 0.00 in
21:40 36.1 °F 32.3 °F 30.16 in WSW 3.0 mph 10.0 mph 86% 0.00 in
21:45 36.1 °F 32.3 °F 30.16 in SW 5.0 mph 7.0 mph 86% 0.00 in
21:50 35.9 °F 32.1 °F 30.17 in SW 2.0 mph 6.0 mph 86% 0.00 in
21:55 35.8 °F 32.0 °F 30.16 in SW 3.0 mph 8.0 mph 86% 0.00 in
22:00 35.7 °F 32.2 °F 30.17 in SSE 2.0 mph 6.0 mph 87% 0.00 in
22:05 35.6 °F 32.1 °F 30.17 in SW 3.0 mph 6.0 mph 87% 0.00 in
22:10 35.6 °F 32.4 °F 30.17 in SW 3.0 mph 6.0 mph 88% 0.00 in
22:15 35.5 °F 32.3 °F 30.17 in SW 3.0 mph 6.0 mph 88% 0.00 in
22:20 35.5 °F 32.3 °F 30.17 in SW 3.0 mph 6.0 mph 88% 0.00 in
22:25 35.5 °F 32.3 °F 30.17 in SW 3.0 mph 7.0 mph 88% 0.00 in
22:30 35.5 °F 32.3 °F 30.17 in SW 3.0 mph 7.0 mph 88% 0.00 in
22:35 35.5 °F 32.3 °F 30.17 in SW 2.0 mph 5.0 mph 88% 0.00 in
22:40 35.4 °F 32.5 °F 30.17 in SW 3.0 mph 5.0 mph 89% 0.00 in
22:45 35.5 °F 32.6 °F 30.17 in SW 3.0 mph 7.0 mph 89% 0.00 in
22:50 35.6 °F 32.7 °F 30.17 in SW 3.0 mph 6.0 mph 89% 0.00 in
22:55 35.7 °F 32.8 °F 30.17 in WSW 4.0 mph 9.0 mph 89% 0.00 in
23:00 35.7 °F 32.5 °F 30.17 in SW 2.0 mph 6.0 mph 88% 0.00 in
23:05 35.6 °F 32.7 °F 30.17 in SW 3.0 mph 3.0 mph 89% 0.00 in
23:10 35.6 °F 32.7 °F 30.17 in WSW 2.0 mph 5.0 mph 89% 0.00 in
23:15 35.5 °F 32.6 °F 30.16 in SW 2.0 mph 5.0 mph 89% 0.00 in
23:20 35.6 °F 32.7 °F 30.17 in SW 2.0 mph 5.0 mph 89% 0.00 in
23:25 35.6 °F 32.7 °F 30.17 in SW 2.0 mph 5.0 mph 89% 0.00 in
23:30 35.6 °F 32.7 °F 30.17 in SW 1.0 mph 4.0 mph 89% 0.00 in
23:35 35.5 °F 32.6 °F 30.17 in SW 2.0 mph 4.0 mph 89% 0.00 in
23:40 35.6 °F 32.7 °F 30.17 in SW 2.0 mph 4.0 mph 89% 0.00 in
23:45 35.4 °F 32.5 °F 30.17 in SW 2.0 mph 4.0 mph 89% 0.00 in
23:49 35.1 °F 32.2 °F 30.17 in SW 1.0 mph 3.0 mph 89% 0.00 in
23:55 34.9 °F 32.0 °F 30.17 in SW 1.0 mph 3.0 mph 89% 0.00 in
Buffalo, New York, USA
Compliments of Weather Underground - 2.5 mb